sensor_id;sensor_type;location;lat;lon;timestamp;pressure;altitude;pressure_sealevel;temperature;humidity
8075;BME280;4080;42.676;23.372;2022-08-03T00:02:13;95171.72;;;24.00;97.92
8075;BME280;4080;42.676;23.372;2022-08-03T00:04:39;95171.78;;;24.04;98.17
8075;BME280;4080;42.676;23.372;2022-08-03T00:07:06;95163.28;;;24.02;97.63
8075;BME280;4080;42.676;23.372;2022-08-03T00:09:33;95167.44;;;23.99;96.97
8075;BME280;4080;42.676;23.372;2022-08-03T00:12:00;95162.06;;;23.99;96.43
8075;BME280;4080;42.676;23.372;2022-08-03T00:14:27;95167.97;;;24.05;96.34
8075;BME280;4080;42.676;23.372;2022-08-03T00:16:55;95151.78;;;24.05;95.46
8075;BME280;4080;42.676;23.372;2022-08-03T00:19:22;95163.59;;;24.16;94.88
8075;BME280;4080;42.676;23.372;2022-08-03T00:21:49;95160.47;;;24.14;94.41
8075;BME280;4080;42.676;23.372;2022-08-03T00:24:16;95158.03;;;24.09;94.15
8075;BME280;4080;42.676;23.372;2022-08-03T00:26:42;95167.41;;;24.15;93.87
8075;BME280;4080;42.676;23.372;2022-08-03T00:29:09;95154.50;;;24.05;93.72
8075;BME280;4080;42.676;23.372;2022-08-03T00:31:36;95167.59;;;24.06;93.86
8075;BME280;4080;42.676;23.372;2022-08-03T00:34:04;95159.72;;;23.98;94.67
8075;BME280;4080;42.676;23.372;2022-08-03T00:36:31;95158.22;;;24.00;94.95
8075;BME280;4080;42.676;23.372;2022-08-03T00:38:58;95165.53;;;24.00;94.75
8075;BME280;4080;42.676;23.372;2022-08-03T00:41:25;95162.41;;;23.98;95.16
8075;BME280;4080;42.676;23.372;2022-08-03T00:43:51;95160.84;;;23.97;95.61
8075;BME280;4080;42.676;23.372;2022-08-03T00:46:18;95142.84;;;23.85;95.50
8075;BME280;4080;42.676;23.372;2022-08-03T00:48:47;95155.72;;;23.92;95.42
8075;BME280;4080;42.676;23.372;2022-08-03T00:51:15;95161.63;;;23.81;96.08
8075;BME280;4080;42.676;23.372;2022-08-03T00:53:42;95147.56;;;23.72;96.53
8075;BME280;4080;42.676;23.372;2022-08-03T00:56:12;95160.84;;;23.65;95.79
8075;BME280;4080;42.676;23.372;2022-08-03T00:58:39;95162.84;;;23.68;96.67
8075;BME280;4080;42.676;23.372;2022-08-03T01:01:06;95159.19;;;23.76;96.11
8075;BME280;4080;42.676;23.372;2022-08-03T01:03:32;95161.97;;;23.80;94.98
8075;BME280;4080;42.676;23.372;2022-08-03T01:06:04;95122.31;;;23.49;94.97
8075;BME280;4080;42.676;23.372;2022-08-03T01:08:41;95156.34;;;23.69;95.00
8075;BME280;4080;42.676;23.372;2022-08-03T01:11:15;95155.63;;;23.72;94.85
8075;BME280;4080;42.676;23.372;2022-08-03T01:13:48;95140.19;;;23.69;94.49
8075;BME280;4080;42.676;23.372;2022-08-03T01:16:22;95147.81;;;23.67;94.68
8075;BME280;4080;42.676;23.372;2022-08-03T01:18:57;95150.44;;;23.64;94.51
8075;BME280;4080;42.676;23.372;2022-08-03T01:21:27;95155.06;;;23.51;95.52
8075;BME280;4080;42.676;23.372;2022-08-03T01:24:15;95148.63;;;23.40;95.67
8075;BME280;4080;42.676;23.372;2022-08-03T01:27:02;95146.88;;;23.32;96.24
8075;BME280;4080;42.676;23.372;2022-08-03T01:29:51;95138.94;;;23.07;96.39
8075;BME280;4080;42.676;23.372;2022-08-03T01:32:27;95138.78;;;22.88;98.90
8075;BME280;4080;42.676;23.372;2022-08-03T01:35:02;95150.44;;;22.80;98.38
8075;BME280;4080;42.676;23.372;2022-08-03T01:37:36;95144.00;;;22.56;99.53
8075;BME280;4080;42.676;23.372;2022-08-03T01:40:05;95150.34;;;22.36;100.00
8075;BME280;4080;42.676;23.372;2022-08-03T01:42:35;95150.16;;;22.05;100.00
8075;BME280;4080;42.676;23.372;2022-08-03T01:45:05;95144.75;;;21.80;100.00
8075;BME280;4080;42.676;23.372;2022-08-03T01:47:33;95139.59;;;21.87;100.00
8075;BME280;4080;42.676;23.372;2022-08-03T01:50:02;95148.78;;;21.86;100.00
8075;BME280;4080;42.676;23.372;2022-08-03T01:52:31;95144.75;;;21.80;100.00
8075;BME280;4080;42.676;23.372;2022-08-03T01:55:02;95151.69;;;21.81;100.00
8075;BME280;4080;42.676;23.372;2022-08-03T01:57:29;95142.50;;;21.82;100.00
8075;BME280;4080;42.676;23.372;2022-08-03T01:59:59;95142.72;;;21.89;100.00
8075;BME280;4080;42.676;23.372;2022-08-03T02:02:29;95152.25;;;21.75;100.00
8075;BME280;4080;42.676;23.372;2022-08-03T02:04:57;95130.34;;;21.27;100.00
8075;BME280;4080;42.676;23.372;2022-08-03T02:07:26;95150.38;;;21.42;100.00
8075;BME280;4080;42.676;23.372;2022-08-03T02:09:55;95126.19;;;21.18;100.00
8075;BME280;4080;42.676;23.372;2022-08-03T02:12:27;95143.25;;;21.13;100.00
8075;BME280;4080;42.676;23.372;2022-08-03T02:14:54;95143.38;;;21.17;100.00
8075;BME280;4080;42.676;23.372;2022-08-03T02:17:24;95121.22;;;20.74;100.00
8075;BME280;4080;42.676;23.372;2022-08-03T02:19:53;95129.78;;;20.89;100.00
8075;BME280;4080;42.676;23.372;2022-08-03T02:22:23;95137.75;;;21.09;100.00
8075;BME280;4080;42.676;23.372;2022-08-03T02:24:50;95135.53;;;21.12;100.00
8075;BME280;4080;42.676;23.372;2022-08-03T02:27:20;95142.38;;;21.21;100.00
8075;BME280;4080;42.676;23.372;2022-08-03T02:29:50;95137.75;;;21.43;100.00
8075;BME280;4080;42.676;23.372;2022-08-03T02:32:24;95142.03;;;21.68;100.00
8075;BME280;4080;42.676;23.372;2022-08-03T02:34:57;95136.69;;;21.92;100.00
8075;BME280;4080;42.676;23.372;2022-08-03T02:37:27;95148.69;;;22.07;100.00
8075;BME280;4080;42.676;23.372;2022-08-03T02:39:58;95131.13;;;22.10;100.00
8075;BME280;4080;42.676;23.372;2022-08-03T02:42:27;95143.41;;;22.35;100.00
8075;BME280;4080;42.676;23.372;2022-08-03T02:44:57;95146.50;;;22.49;100.00
8075;BME280;4080;42.676;23.372;2022-08-03T02:47:27;95126.13;;;22.48;100.00
8075;BME280;4080;42.676;23.372;2022-08-03T02:49:57;95148.72;;;22.59;100.00
8075;BME280;4080;42.676;23.372;2022-08-03T02:52:27;95148.25;;;22.57;100.00
8075;BME280;4080;42.676;23.372;2022-08-03T02:54:58;95140.09;;;22.54;100.00
8075;BME280;4080;42.676;23.372;2022-08-03T02:57:27;95148.13;;;22.14;100.00
8075;BME280;4080;42.676;23.372;2022-08-03T02:59:56;95133.44;;;21.99;100.00
8075;BME280;4080;42.676;23.372;2022-08-03T03:02:24;95161.09;;;22.24;100.00
8075;BME280;4080;42.676;23.372;2022-08-03T03:04:52;95155.25;;;22.34;100.00
8075;BME280;4080;42.676;23.372;2022-08-03T03:07:20;95158.41;;;22.36;100.00
8075;BME280;4080;42.676;23.372;2022-08-03T03:09:47;95148.66;;;22.31;100.00
8075;BME280;4080;42.676;23.372;2022-08-03T03:12:14;95161.50;;;22.50;100.00
8075;BME280;4080;42.676;23.372;2022-08-03T03:14:42;95161.25;;;22.55;100.00
8075;BME280;4080;42.676;23.372;2022-08-03T03:17:10;95160.59;;;22.58;100.00
8075;BME280;4080;42.676;23.372;2022-08-03T03:19:38;95169.31;;;22.68;100.00
8075;BME280;4080;42.676;23.372;2022-08-03T03:22:06;95172.00;;;22.68;100.00
8075;BME280;4080;42.676;23.372;2022-08-03T03:24:35;95163.50;;;22.66;100.00
8075;BME280;4080;42.676;23.372;2022-08-03T03:27:03;95183.38;;;22.89;100.00
8075;BME280;4080;42.676;23.372;2022-08-03T03:29:31;95181.38;;;22.86;100.00
8075;BME280;4080;42.676;23.372;2022-08-03T03:31:59;95188.44;;;22.78;100.00
8075;BME280;4080;42.676;23.372;2022-08-03T03:34:28;95168.38;;;22.76;100.00
8075;BME280;4080;42.676;23.372;2022-08-03T03:36:56;95178.59;;;22.82;100.00
8075;BME280;4080;42.676;23.372;2022-08-03T03:39:23;95178.59;;;22.82;100.00
8075;BME280;4080;42.676;23.372;2022-08-03T03:41:51;95184.84;;;22.86;100.00
8075;BME280;4080;42.676;23.372;2022-08-03T03:44:18;95177.66;;;22.90;100.00
8075;BME280;4080;42.676;23.372;2022-08-03T03:46:45;95194.94;;;22.89;100.00
8075;BME280;4080;42.676;23.372;2022-08-03T03:49:12;95179.91;;;22.88;100.00
8075;BME280;4080;42.676;23.372;2022-08-03T03:51:39;95187.19;;;22.88;100.00
8075;BME280;4080;42.676;23.372;2022-08-03T03:54:06;95186.50;;;22.91;100.00
8075;BME280;4080;42.676;23.372;2022-08-03T03:56:33;95194.38;;;22.96;100.00
8075;BME280;4080;42.676;23.372;2022-08-03T03:59:01;95191.00;;;22.99;100.00
8075;BME280;4080;42.676;23.372;2022-08-03T04:01:28;95175.84;;;22.95;100.00
8075;BME280;4080;42.676;23.372;2022-08-03T04:03:54;95195.88;;;23.09;100.00
8075;BME280;4080;42.676;23.372;2022-08-03T04:06:21;95189.53;;;22.89;100.00
8075;BME280;4080;42.676;23.372;2022-08-03T04:09:07;95196.38;;;22.87;100.00
8075;BME280;4080;42.676;23.372;2022-08-03T04:11:54;95192.13;;;22.98;100.00
8075;BME280;4080;42.676;23.372;2022-08-03T04:14:27;95186.25;;;23.08;100.00
8075;BME280;4080;42.676;23.372;2022-08-03T04:16:57;95188.88;;;23.20;100.00
8075;BME280;4080;42.676;23.372;2022-08-03T04:19:33;95163.88;;;23.20;100.00
8075;BME280;4080;42.676;23.372;2022-08-03T04:22:04;95191.88;;;23.47;100.00
8075;BME280;4080;42.676;23.372;2022-08-03T04:24:34;95188.06;;;23.48;100.00
8075;BME280;4080;42.676;23.372;2022-08-03T04:27:06;95177.97;;;23.29;100.00
8075;BME280;4080;42.676;23.372;2022-08-03T04:29:39;95192.75;;;23.35;100.00
8075;BME280;4080;42.676;23.372;2022-08-03T04:32:07;95192.06;;;23.54;100.00
8075;BME280;4080;42.676;23.372;2022-08-03T04:34:35;95195.25;;;23.88;99.95
8075;BME280;4080;42.676;23.372;2022-08-03T04:37:08;95207.94;;;24.19;99.11
8075;BME280;4080;42.676;23.372;2022-08-03T04:39:38;95213.66;;;24.49;97.80
8075;BME280;4080;42.676;23.372;2022-08-03T04:42:07;95208.53;;;24.78;96.73
8075;BME280;4080;42.676;23.372;2022-08-03T04:44:40;95213.72;;;25.03;94.34
8075;BME280;4080;42.676;23.372;2022-08-03T04:47:08;95217.63;;;25.25;94.02
8075;BME280;4080;42.676;23.372;2022-08-03T04:49:35;95213.63;;;25.38;92.29
8075;BME280;4080;42.676;23.372;2022-08-03T04:52:03;95205.63;;;25.42;91.88
8075;BME280;4080;42.676;23.372;2022-08-03T04:54:38;95229.94;;;25.64;91.21
8075;BME280;4080;42.676;23.372;2022-08-03T04:57:05;95212.69;;;25.69;90.22
8075;BME280;4080;42.676;23.372;2022-08-03T04:59:31;95230.66;;;25.81;90.07
8075;BME280;4080;42.676;23.372;2022-08-03T05:02:00;95230.72;;;25.84;91.26
8075;BME280;4080;42.676;23.372;2022-08-03T05:04:27;95224.28;;;25.92;88.84
8075;BME280;4080;42.676;23.372;2022-08-03T05:06:53;95220.75;;;25.88;89.11
8075;BME280;4080;42.676;23.372;2022-08-03T05:09:20;95231.91;;;25.87;88.89
8075;BME280;4080;42.676;23.372;2022-08-03T05:11:47;95231.81;;;25.80;86.25
8075;BME280;4080;42.676;23.372;2022-08-03T05:14:14;95238.66;;;25.74;86.88
8075;BME280;4080;42.676;23.372;2022-08-03T05:16:41;95239.00;;;25.72;88.25
8075;BME280;4080;42.676;23.372;2022-08-03T05:19:09;95247.59;;;25.78;88.09
8075;BME280;4080;42.676;23.372;2022-08-03T05:21:36;95240.38;;;25.85;88.41
8075;BME280;4080;42.676;23.372;2022-08-03T05:24:03;95256.66;;;25.89;87.40
8075;BME280;4080;42.676;23.372;2022-08-03T05:26:30;95246.03;;;25.99;85.88
8075;BME280;4080;42.676;23.372;2022-08-03T05:28:57;95247.69;;;26.04;86.14
8075;BME280;4080;42.676;23.372;2022-08-03T05:31:23;95245.44;;;26.10;86.13
8075;BME280;4080;42.676;23.372;2022-08-03T05:33:50;95250.78;;;26.06;88.34
8075;BME280;4080;42.676;23.372;2022-08-03T05:36:19;95253.66;;;25.94;87.36
8075;BME280;4080;42.676;23.372;2022-08-03T05:38:45;95248.56;;;25.89;88.13
8075;BME280;4080;42.676;23.372;2022-08-03T05:41:12;95261.38;;;26.15;87.00
8075;BME280;4080;42.676;23.372;2022-08-03T05:43:39;95251.19;;;26.31;86.06
8075;BME280;4080;42.676;23.372;2022-08-03T05:46:06;95259.41;;;26.61;84.05
8075;BME280;4080;42.676;23.372;2022-08-03T05:48:33;95255.69;;;26.69;84.12
8075;BME280;4080;42.676;23.372;2022-08-03T05:50:59;95257.34;;;26.77;82.36
8075;BME280;4080;42.676;23.372;2022-08-03T05:53:28;95264.78;;;26.84;82.81
8075;BME280;4080;42.676;23.372;2022-08-03T05:55:54;95267.66;;;26.95;82.68
8075;BME280;4080;42.676;23.372;2022-08-03T05:58:21;95260.81;;;27.01;80.92
8075;BME280;4080;42.676;23.372;2022-08-03T06:00:48;95268.28;;;27.11;81.34
8075;BME280;4080;42.676;23.372;2022-08-03T06:03:15;95269.50;;;27.17;81.68
8075;BME280;4080;42.676;23.372;2022-08-03T06:05:41;95268.22;;;27.37;80.09
8075;BME280;4080;42.676;23.372;2022-08-03T06:08:08;95270.69;;;27.49;78.46
8075;BME280;4080;42.676;23.372;2022-08-03T06:10:37;95259.03;;;27.45;78.31
8075;BME280;4080;42.676;23.372;2022-08-03T06:13:03;95268.59;;;27.66;76.90
8075;BME280;4080;42.676;23.372;2022-08-03T06:15:30;95275.72;;;27.81;76.33
8075;BME280;4080;42.676;23.372;2022-08-03T06:17:59;95277.81;;;27.95;76.35
8075;BME280;4080;42.676;23.372;2022-08-03T06:20:26;95256.56;;;28.04;76.10
8075;BME280;4080;42.676;23.372;2022-08-03T06:22:53;95264.19;;;28.28;73.84
8075;BME280;4080;42.676;23.372;2022-08-03T06:25:20;95256.75;;;28.22;74.01
8075;BME280;4080;42.676;23.372;2022-08-03T06:27:48;95265.47;;;28.45;74.08
8075;BME280;4080;42.676;23.372;2022-08-03T06:30:15;95274.84;;;28.51;72.05
8075;BME280;4080;42.676;23.372;2022-08-03T06:32:43;95255.84;;;28.48;75.12
8075;BME280;4080;42.676;23.372;2022-08-03T06:35:10;95270.34;;;28.76;73.76
8075;BME280;4080;42.676;23.372;2022-08-03T06:37:43;95255.69;;;28.81;71.95
8075;BME280;4080;42.676;23.372;2022-08-03T06:40:11;95261.97;;;28.96;71.69
8075;BME280;4080;42.676;23.372;2022-08-03T06:42:39;95272.13;;;29.06;71.89
8075;BME280;4080;42.676;23.372;2022-08-03T06:45:08;95258.16;;;29.08;70.35
8075;BME280;4080;42.676;23.372;2022-08-03T06:47:35;95262.88;;;29.18;70.00
8075;BME280;4080;42.676;23.372;2022-08-03T06:50:02;95261.31;;;29.13;70.39
8075;BME280;4080;42.676;23.372;2022-08-03T06:52:29;95265.06;;;28.91;71.89
8075;BME280;4080;42.676;23.372;2022-08-03T06:54:57;95264.38;;;29.08;71.37
8075;BME280;4080;42.676;23.372;2022-08-03T06:57:23;95261.00;;;29.36;70.66
8075;BME280;4080;42.676;23.372;2022-08-03T06:59:50;95264.22;;;29.56;70.01
8075;BME280;4080;42.676;23.372;2022-08-03T07:02:18;95259.66;;;29.81;69.65
8075;BME280;4080;42.676;23.372;2022-08-03T07:04:45;95264.78;;;30.08;67.75
8075;BME280;4080;42.676;23.372;2022-08-03T07:07:12;95264.78;;;30.29;67.62
8075;BME280;4080;42.676;23.372;2022-08-03T07:09:39;95264.44;;;30.45;66.76
8075;BME280;4080;42.676;23.372;2022-08-03T07:12:06;95261.69;;;30.52;65.27
8075;BME280;4080;42.676;23.372;2022-08-03T07:14:33;95265.56;;;30.58;64.93
8075;BME280;4080;42.676;23.372;2022-08-03T07:17:00;95260.13;;;30.51;63.61
8075;BME280;4080;42.676;23.372;2022-08-03T07:19:28;95258.56;;;30.53;63.90
8075;BME280;4080;42.676;23.372;2022-08-03T07:21:55;95264.81;;;30.50;65.59
8075;BME280;4080;42.676;23.372;2022-08-03T07:24:21;95260.13;;;30.54;63.52
8075;BME280;4080;42.676;23.372;2022-08-03T07:26:48;95265.22;;;30.70;63.00
8075;BME280;4080;42.676;23.372;2022-08-03T07:29:15;95266.38;;;30.73;64.33
8075;BME280;4080;42.676;23.372;2022-08-03T07:31:42;95267.13;;;30.91;64.37
8075;BME280;4080;42.676;23.372;2022-08-03T07:34:08;95263.63;;;30.87;63.00
8075;BME280;4080;42.676;23.372;2022-08-03T07:36:37;95273.75;;;30.94;63.93
8075;BME280;4080;42.676;23.372;2022-08-03T07:39:03;95271.38;;;31.10;61.88
8075;BME280;4080;42.676;23.372;2022-08-03T07:41:30;95267.06;;;31.12;60.22
8075;BME280;4080;42.676;23.372;2022-08-03T07:43:57;95261.63;;;31.19;62.10
8075;BME280;4080;42.676;23.372;2022-08-03T07:46:24;95275.63;;;31.32;60.11
8075;BME280;4080;42.676;23.372;2022-08-03T07:48:51;95270.53;;;31.38;59.84
8075;BME280;4080;42.676;23.372;2022-08-03T07:51:18;95273.63;;;31.43;59.30
8075;BME280;4080;42.676;23.372;2022-08-03T07:53:46;95278.66;;;31.52;58.25
8075;BME280;4080;42.676;23.372;2022-08-03T07:56:13;95271.22;;;31.63;57.60
8075;BME280;4080;42.676;23.372;2022-08-03T07:58:41;95260.69;;;31.65;55.94
8075;BME280;4080;42.676;23.372;2022-08-03T08:01:08;95274.69;;;31.67;56.94
8075;BME280;4080;42.676;23.372;2022-08-03T08:03:34;95277.75;;;31.87;57.81
8075;BME280;4080;42.676;23.372;2022-08-03T08:06:01;95273.72;;;32.06;56.40
8075;BME280;4080;42.676;23.372;2022-08-03T08:08:28;95276.75;;;32.22;57.30
8075;BME280;4080;42.676;23.372;2022-08-03T08:10:57;95277.41;;;32.40;55.75
8075;BME280;4080;42.676;23.372;2022-08-03T08:13:24;95275.69;;;32.61;55.93
8075;BME280;4080;42.676;23.372;2022-08-03T08:15:51;95285.28;;;32.83;52.77
8075;BME280;4080;42.676;23.372;2022-08-03T08:18:18;95279.03;;;32.86;51.29
8075;BME280;4080;42.676;23.372;2022-08-03T08:20:45;95270.91;;;32.79;50.40
8075;BME280;4080;42.676;23.372;2022-08-03T08:23:12;95286.06;;;32.84;51.55
8075;BME280;4080;42.676;23.372;2022-08-03T08:25:39;95267.66;;;32.91;52.13
8075;BME280;4080;42.676;23.372;2022-08-03T08:28:07;95272.97;;;33.06;50.14
8075;BME280;4080;42.676;23.372;2022-08-03T08:30:34;95280.78;;;33.03;49.08
8075;BME280;4080;42.676;23.372;2022-08-03T08:33:00;95278.84;;;33.04;49.98
8075;BME280;4080;42.676;23.372;2022-08-03T08:35:27;95281.19;;;33.02;50.07
8075;BME280;4080;42.676;23.372;2022-08-03T08:37:54;95267.50;;;33.06;48.91
8075;BME280;4080;42.676;23.372;2022-08-03T08:40:21;95272.06;;;33.19;48.24
8075;BME280;4080;42.676;23.372;2022-08-03T08:42:48;95255.69;;;33.16;46.36
8075;BME280;4080;42.676;23.372;2022-08-03T08:45:17;95276.53;;;33.40;46.05
8075;BME280;4080;42.676;23.372;2022-08-03T08:47:45;95272.63;;;33.41;44.74
8075;BME280;4080;42.676;23.372;2022-08-03T08:50:13;95271.81;;;33.44;46.67
8075;BME280;4080;42.676;23.372;2022-08-03T08:52:40;95251.16;;;33.40;45.80
8075;BME280;4080;42.676;23.372;2022-08-03T08:55:10;95256.38;;;33.57;46.22
8075;BME280;4080;42.676;23.372;2022-08-03T08:57:43;95273.66;;;33.85;43.89
8075;BME280;4080;42.676;23.372;2022-08-03T09:00:12;95271.91;;;33.98;43.74
8075;BME280;4080;42.676;23.372;2022-08-03T09:02:41;95231.84;;;33.84;44.58
8075;BME280;4080;42.676;23.372;2022-08-03T09:05:09;95265.47;;;34.12;44.15
8075;BME280;4080;42.676;23.372;2022-08-03T09:07:37;95268.44;;;34.21;43.93
8075;BME280;4080;42.676;23.372;2022-08-03T09:10:06;95270.75;;;34.22;43.51
8075;BME280;4080;42.676;23.372;2022-08-03T09:12:36;95268.28;;;34.35;43.84
8075;BME280;4080;42.676;23.372;2022-08-03T09:15:16;95262.31;;;34.40;41.90
8075;BME280;4080;42.676;23.372;2022-08-03T09:17:44;95260.59;;;34.50;42.53
8075;BME280;4080;42.676;23.372;2022-08-03T09:20:12;95260.94;;;34.52;42.17
8075;BME280;4080;42.676;23.372;2022-08-03T09:22:52;95260.00;;;34.39;41.98
8075;BME280;4080;42.676;23.372;2022-08-03T09:25:24;95256.56;;;34.31;41.75
8075;BME280;4080;42.676;23.372;2022-08-03T09:27:52;95260.88;;;34.05;44.56
8075;BME280;4080;42.676;23.372;2022-08-03T09:30:19;95262.13;;;33.97;42.04
8075;BME280;4080;42.676;23.372;2022-08-03T09:32:47;95253.72;;;34.11;41.07
8075;BME280;4080;42.676;23.372;2022-08-03T09:35:14;95251.78;;;33.81;42.04
8075;BME280;4080;42.676;23.372;2022-08-03T09:37:41;95250.94;;;33.88;44.44
8075;BME280;4080;42.676;23.372;2022-08-03T09:40:08;95250.94;;;33.88;43.70
8075;BME280;4080;42.676;23.372;2022-08-03T09:42:35;95256.28;;;33.99;42.84
8075;BME280;4080;42.676;23.372;2022-08-03T09:45:04;95236.69;;;34.00;41.33
8075;BME280;4080;42.676;23.372;2022-08-03T09:47:32;95245.34;;;34.22;41.78
8075;BME280;4080;42.676;23.372;2022-08-03T09:50:04;95246.31;;;34.62;42.34
8075;BME280;4080;42.676;23.372;2022-08-03T09:52:32;95243.66;;;34.78;41.83
8075;BME280;4080;42.676;23.372;2022-08-03T09:55:00;95247.19;;;35.02;39.76
8075;BME280;4080;42.676;23.372;2022-08-03T09:57:28;95252.03;;;34.71;39.66
8075;BME280;4080;42.676;23.372;2022-08-03T10:00:06;95245.22;;;34.56;39.89
8075;BME280;4080;42.676;23.372;2022-08-03T10:02:35;95247.13;;;34.36;40.20
8075;BME280;4080;42.676;23.372;2022-08-03T10:05:04;95241.66;;;34.36;42.36
8075;BME280;4080;42.676;23.372;2022-08-03T10:07:41;95247.03;;;34.66;41.03
8075;BME280;4080;42.676;23.372;2022-08-03T10:10:08;95236.34;;;34.48;41.12
8075;BME280;4080;42.676;23.372;2022-08-03T10:12:36;95242.91;;;34.54;40.54
8075;BME280;4080;42.676;23.372;2022-08-03T10:15:04;95237.72;;;34.37;41.02
8075;BME280;4080;42.676;23.372;2022-08-03T10:17:31;95243.91;;;34.14;40.71
8075;BME280;4080;42.676;23.372;2022-08-03T10:19:57;95240.16;;;34.04;41.63
8075;BME280;4080;42.676;23.372;2022-08-03T10:22:28;95229.41;;;33.90;42.50
8075;BME280;4080;42.676;23.372;2022-08-03T10:24:59;95233.22;;;33.96;42.54
8075;BME280;4080;42.676;23.372;2022-08-03T10:27:32;95237.97;;;34.19;41.96
8075;BME280;4080;42.676;23.372;2022-08-03T10:30:00;95236.31;;;33.98;41.41
8075;BME280;4080;42.676;23.372;2022-08-03T10:32:30;95224.97;;;34.00;42.22
8075;BME280;4080;42.676;23.372;2022-08-03T10:35:02;95227.50;;;33.87;43.45
8075;BME280;4080;42.676;23.372;2022-08-03T10:37:32;95187.41;;;33.46;43.26
8075;BME280;4080;42.676;23.372;2022-08-03T10:40:01;95227.22;;;33.47;42.79
8075;BME280;4080;42.676;23.372;2022-08-03T10:42:29;95213.00;;;33.59;43.43
8075;BME280;4080;42.676;23.372;2022-08-03T10:45:03;95227.72;;;33.69;42.62
8075;BME280;4080;42.676;23.372;2022-08-03T10:47:33;95223.06;;;33.66;42.72
8075;BME280;4080;42.676;23.372;2022-08-03T10:50:01;95223.63;;;33.54;43.53
8075;BME280;4080;42.676;23.372;2022-08-03T10:52:28;95216.19;;;33.54;44.86
8075;BME280;4080;42.676;23.372;2022-08-03T10:54:56;95228.09;;;33.71;43.70
8075;BME280;4080;42.676;23.372;2022-08-03T10:57:46;95168.84;;;33.27;43.05
8075;BME280;4080;42.676;23.372;2022-08-03T11:00:14;95208.94;;;33.41;43.16
8075;BME280;4080;42.676;23.372;2022-08-03T11:03:14;95205.22;;;32.90;46.01
8075;BME280;4080;42.676;23.372;2022-08-03T11:05:42;95199.88;;;32.79;47.42
8075;BME280;4080;42.676;23.372;2022-08-03T11:08:30;95192.25;;;32.97;47.13
8075;BME280;4080;42.676;23.372;2022-08-03T11:11:02;95204.06;;;33.21;46.42
8075;BME280;4080;42.676;23.372;2022-08-03T11:14:00;95203.91;;;33.36;45.58
8075;BME280;4080;42.676;23.372;2022-08-03T11:16:30;95199.97;;;33.40;45.55
8075;BME280;4080;42.676;23.372;2022-08-03T11:19:02;95196.66;;;33.22;45.72
8075;BME280;4080;42.676;23.372;2022-08-03T11:21:51;95193.38;;;33.34;45.22
8075;BME280;4080;42.676;23.372;2022-08-03T11:27:25;95194.31;;;33.54;46.10
8075;BME280;4080;42.676;23.372;2022-08-03T11:29:54;95186.00;;;33.61;43.30
8075;BME280;4080;42.676;23.372;2022-08-03T11:35:33;95174.88;;;34.03;43.49
8075;BME280;4080;42.676;23.372;2022-08-03T11:38:10;95161.81;;;33.87;43.95
8075;BME280;4080;42.676;23.372;2022-08-03T11:40:42;95159.81;;;33.91;44.01
8075;BME280;4080;42.676;23.372;2022-08-03T11:43:43;95171.47;;;33.95;44.35
8075;BME280;4080;42.676;23.372;2022-08-03T11:46:11;95168.22;;;34.04;43.71
8075;BME280;4080;42.676;23.372;2022-08-03T11:48:43;95168.16;;;33.80;43.39
8075;BME280;4080;42.676;23.372;2022-08-03T11:51:19;95162.63;;;33.57;45.18
8075;BME280;4080;42.676;23.372;2022-08-03T11:53:46;95171.66;;;33.54;46.37
8075;BME280;4080;42.676;23.372;2022-08-03T11:56:16;95161.50;;;33.54;45.14
8075;BME280;4080;42.676;23.372;2022-08-03T11:58:47;95159.19;;;33.19;46.34
8075;BME280;4080;42.676;23.372;2022-08-03T12:01:14;95159.75;;;33.07;46.19
8075;BME280;4080;42.676;23.372;2022-08-03T12:03:42;95171.81;;;33.09;46.77
8075;BME280;4080;42.676;23.372;2022-08-03T12:06:09;95163.63;;;33.09;46.50
8075;BME280;4080;42.676;23.372;2022-08-03T12:08:37;95154.66;;;33.05;44.82
8075;BME280;4080;42.676;23.372;2022-08-03T12:11:06;95154.41;;;32.96;45.40
8075;BME280;4080;42.676;23.372;2022-08-03T12:13:41;95160.91;;;32.68;45.11
8075;BME280;4080;42.676;23.372;2022-08-03T12:16:16;95129.59;;;32.42;46.52
8075;BME280;4080;42.676;23.372;2022-08-03T12:18:44;95149.78;;;32.52;45.50
8075;BME280;4080;42.676;23.372;2022-08-03T12:21:11;95145.38;;;32.61;46.35
8075;BME280;4080;42.676;23.372;2022-08-03T12:23:38;95140.56;;;32.76;45.77
8075;BME280;4080;42.676;23.372;2022-08-03T12:26:07;95150.97;;;32.88;45.79
8075;BME280;4080;42.676;23.372;2022-08-03T12:28:35;95126.69;;;32.60;45.18
8075;BME280;4080;42.676;23.372;2022-08-03T12:31:04;95137.41;;;32.40;45.89
8075;BME280;4080;42.676;23.372;2022-08-03T12:33:53;95123.78;;;31.92;45.06
8075;BME280;4080;42.676;23.372;2022-08-03T12:36:20;95140.59;;;31.83;46.30
8075;BME280;4080;42.676;23.372;2022-08-03T12:38:54;95143.66;;;31.92;45.28
8075;BME280;4080;42.676;23.372;2022-08-03T12:41:27;95136.31;;;31.82;44.88
8075;BME280;4080;42.676;23.372;2022-08-03T12:43:54;95124.00;;;31.60;44.29
8075;BME280;4080;42.676;23.372;2022-08-03T12:46:21;95134.16;;;31.56;45.60
8075;BME280;4080;42.676;23.372;2022-08-03T12:49:07;95135.31;;;31.58;48.60
8075;BME280;4080;42.676;23.372;2022-08-03T12:51:36;95126.22;;;31.79;49.14
8075;BME280;4080;42.676;23.372;2022-08-03T12:54:07;95136.47;;;32.12;47.81
8075;BME280;4080;42.676;23.372;2022-08-03T12:56:58;95131.97;;;32.36;46.80
8075;BME280;4080;42.676;23.372;2022-08-03T12:59:26;95123.63;;;32.54;46.58
8075;BME280;4080;42.676;23.372;2022-08-03T13:05:17;95120.41;;;32.25;46.39
8075;BME280;4080;42.676;23.372;2022-08-03T13:07:44;95113.84;;;32.12;48.01
8075;BME280;4080;42.676;23.372;2022-08-03T13:10:12;95119.75;;;32.07;48.06
8075;BME280;4080;42.676;23.372;2022-08-03T13:12:52;95106.25;;;31.93;48.40
8075;BME280;4080;42.676;23.372;2022-08-03T13:15:22;95108.91;;;32.00;48.54
8075;BME280;4080;42.676;23.372;2022-08-03T13:17:51;95121.91;;;31.85;49.56
8075;BME280;4080;42.676;23.372;2022-08-03T13:20:19;95110.38;;;31.52;49.14
8075;BME280;4080;42.676;23.372;2022-08-03T13:22:47;95094.22;;;31.28;50.06
8075;BME280;4080;42.676;23.372;2022-08-03T13:25:14;95102.81;;;31.19;52.09
8075;BME280;4080;42.676;23.372;2022-08-03T13:27:41;95116.88;;;31.07;53.33
8075;BME280;4080;42.676;23.372;2022-08-03T13:30:08;95124.72;;;30.87;54.21